Time;durP1;ratioP1;P1;durP2;ratioP2;P2;SDS_P1;SDS_P2;PMS_P1;PMS_P2;Temp;Humidity;BMP_temperature;BMP_pressure;BME280_temperature;BME280_humidity;BME280_pressure;Samples;Min_cycle;Max_cycle;Signal;HPM_P1;HPM_P2
2024/01/14 00:02:01;;;;;;;96.57;30.47;;;;;;;;;;5012501;28;20021;-92
2024/01/14 00:04:26;;;;;;;109.50;31.97;;;;;;;;;;5029746;28;20047;-92
2024/01/14 00:06:52;;;;;;;101.60;30.93;;;;;;;;;;5033995;28;20287;-92
2024/01/14 00:09:17;;;;;;;99.63;31.43;;;;;;;;;;5035554;28;20354;-93
2024/01/14 00:11:42;;;;;;;96.23;30.93;;;;;;;;;;5049198;28;20014;-91
2024/01/14 00:14:07;;;;;;;100.23;30.83;;;;;;;;;;5038963;28;20397;-92
2024/01/14 00:16:34;;;;;;;110.23;32.20;;;;;;;;;;5031440;28;20026;-93
2024/01/14 00:19:00;;;;;;;115.00;34.83;;;;;;;;;;5034023;28;20022;-91
2024/01/14 00:21:25;;;;;;;100.20;30.47;;;;;;;;;;5031536;28;20014;-92
2024/01/14 00:23:50;;;;;;;91.60;28.17;;;;;;;;;;5032013;28;20040;-92
2024/01/14 00:26:15;;;;;;;106.43;30.97;;;;;;;;;;5031408;28;20049;-91
2024/01/14 00:28:40;;;;;;;101.43;28.93;;;;;;;;;;5032675;28;20523;-91
2024/01/14 00:31:06;;;;;;;107.23;31.60;;;;;;;;;;5031151;28;20845;-90
2024/01/14 00:33:31;;;;;;;97.13;28.50;;;;;;;;;;5031795;28;20106;-92
2024/01/14 00:36:00;;;;;;;103.47;30.47;;;;;;;;;;5033606;28;20507;-92
2024/01/14 00:38:26;;;;;;;96.10;29.63;;;;;;;;;;5033665;28;20109;-91
2024/01/14 00:40:52;;;;;;;102.90;28.77;;;;;;;;;;5037871;28;20041;-91
2024/01/14 00:43:17;;;;;;;108.90;31.15;;;;;;;;;;5041380;28;20117;-91
2024/01/14 00:45:42;;;;;;;98.40;29.13;;;;;;;;;;5040222;28;20484;-91
2024/01/14 00:48:07;;;;;;;101.20;29.60;;;;;;;;;;5036150;28;20041;-91
2024/01/14 00:50:33;;;;;;;88.37;26.67;;;;;;;;;;5014360;28;20010;-92
2024/01/14 00:52:58;;;;;;;98.37;27.10;;;;;;;;;;5029687;28;20056;-91
2024/01/14 00:55:24;;;;;;;99.40;28.80;;;;;;;;;;5031635;28;20100;-90
2024/01/14 00:57:49;;;;;;;98.80;27.43;;;;;;;;;;5014081;28;20288;-92
2024/01/14 01:00:14;;;;;;;97.07;28.03;;;;;;;;;;5011015;28;20037;-91
2024/01/14 01:02:39;;;;;;;91.03;28.10;;;;;;;;;;5025311;28;20032;-92
2024/01/14 01:05:05;;;;;;;90.03;27.03;;;;;;;;;;5025363;28;20018;-91
2024/01/14 01:07:30;;;;;;;91.40;28.07;;;;;;;;;;5028795;28;20112;-91
2024/01/14 01:09:55;;;;;;;89.97;27.73;;;;;;;;;;5030884;28;20500;-92
2024/01/14 01:12:20;;;;;;;100.83;27.80;;;;;;;;;;5031731;28;20036;-92
2024/01/14 01:14:47;;;;;;;93.97;27.80;;;;;;;;;;5024291;28;20010;-92
2024/01/14 01:17:12;;;;;;;99.68;28.40;;;;;;;;;;5012982;28;20540;-92
2024/01/14 01:19:37;;;;;;;97.77;27.13;;;;;;;;;;5031587;28;20029;-92
2024/01/14 01:22:03;;;;;;;98.40;28.87;;;;;;;;;;5029023;28;20029;-92
2024/01/14 01:24:28;;;;;;;96.30;28.30;;;;;;;;;;5032410;28;20124;-92
2024/01/14 01:26:53;;;;;;;100.20;28.60;;;;;;;;;;5021624;28;20113;-92
2024/01/14 01:29:19;;;;;;;96.80;29.07;;;;;;;;;;5012737;28;20390;-91
2024/01/14 01:31:44;;;;;;;96.95;28.23;;;;;;;;;;5017983;28;20024;-94
2024/01/14 01:34:09;;;;;;;85.50;25.97;;;;;;;;;;5031342;28;20017;-92
2024/01/14 01:36:35;;;;;;;84.57;26.00;;;;;;;;;;5033075;28;20477;-92
2024/01/14 01:39:00;;;;;;;92.27;27.10;;;;;;;;;;5023949;28;20466;-92
2024/01/14 01:41:26;;;;;;;93.33;28.27;;;;;;;;;;5023205;28;20491;-93
2024/01/14 01:43:51;;;;;;;95.45;27.55;;;;;;;;;;5018666;28;20034;-94
2024/01/14 01:46:16;;;;;;;93.13;28.20;;;;;;;;;;5015803;28;20580;-94
2024/01/14 01:48:42;;;;;;;88.77;27.07;;;;;;;;;;5012408;28;20032;-94
2024/01/14 01:51:07;;;;;;;94.43;28.87;;;;;;;;;;5011622;28;20056;-92
2024/01/14 01:53:32;;;;;;;89.75;27.08;;;;;;;;;;5030118;28;20029;-93
2024/01/14 01:55:58;;;;;;;89.93;25.90;;;;;;;;;;5030006;28;20120;-92
2024/01/14 01:58:23;;;;;;;99.77;28.07;;;;;;;;;;5031100;28;20029;-93
2024/01/14 02:00:48;;;;;;;88.53;26.93;;;;;;;;;;5029771;28;20040;-94
2024/01/14 02:03:13;;;;;;;87.50;25.30;;;;;;;;;;5031174;28;20017;-93
2024/01/14 02:05:41;;;;;;;102.60;28.37;;;;;;;;;;5032217;28;20032;-93
2024/01/14 02:08:07;;;;;;;94.03;27.08;;;;;;;;;;5020333;28;20153;-91
2024/01/14 02:10:32;;;;;;;97.32;27.52;;;;;;;;;;5025711;28;20025;-94
2024/01/14 02:12:58;;;;;;;91.83;26.70;;;;;;;;;;5014679;28;20030;-92
2024/01/14 02:15:23;;;;;;;102.23;28.73;;;;;;;;;;5031036;28;20416;-93
2024/01/14 02:17:48;;;;;;;96.37;26.73;;;;;;;;;;5032625;28;20025;-93
2024/01/14 02:20:15;;;;;;;94.40;27.63;;;;;;;;;;5030806;28;20071;-94
2024/01/14 02:22:42;;;;;;;95.63;29.33;;;;;;;;;;5031498;28;20033;-93
2024/01/14 02:25:08;;;;;;;100.68;29.00;;;;;;;;;;5015157;28;20038;-94
2024/01/14 02:27:33;;;;;;;93.07;26.67;;;;;;;;;;5024411;28;20021;-93
2024/01/14 02:29:59;;;;;;;98.50;28.23;;;;;;;;;;5014381;28;20045;-94
2024/01/14 02:32:24;;;;;;;97.17;27.73;;;;;;;;;;5020026;28;20280;-94
2024/01/14 02:34:50;;;;;;;94.83;27.00;;;;;;;;;;5030965;28;20022;-93
2024/01/14 02:37:15;;;;;;;91.03;27.20;;;;;;;;;;5030471;28;20389;-93
2024/01/14 02:39:41;;;;;;;104.07;28.77;;;;;;;;;;5023629;28;20057;-92
2024/01/14 02:42:06;;;;;;;103.27;29.47;;;;;;;;;;5012924;28;20021;-94
2024/01/14 02:44:31;;;;;;;105.03;29.20;;;;;;;;;;5029789;28;20032;-93
2024/01/14 02:46:56;;;;;;;116.13;30.97;;;;;;;;;;5030310;28;20029;-93
2024/01/14 02:49:21;;;;;;;109.87;31.43;;;;;;;;;;5030713;28;20044;-93
2024/01/14 02:51:47;;;;;;;109.43;29.83;;;;;;;;;;5030178;28;20028;-92
2024/01/14 02:54:12;;;;;;;110.13;32.10;;;;;;;;;;5031581;28;20024;-93
2024/01/14 02:56:37;;;;;;;99.33;30.30;;;;;;;;;;5031343;28;20044;-93
2024/01/14 02:59:02;;;;;;;111.27;29.63;;;;;;;;;;5026789;28;20029;-92
2024/01/14 03:01:27;;;;;;;106.30;30.17;;;;;;;;;;5029842;28;20049;-94
2024/01/14 03:03:53;;;;;;;109.70;30.27;;;;;;;;;;5031422;28;20049;-90
2024/01/14 03:06:18;;;;;;;117.17;30.87;;;;;;;;;;5031639;28;20110;-92
2024/01/14 03:08:43;;;;;;;116.50;30.60;;;;;;;;;;5029825;28;20025;-94
2024/01/14 03:11:08;;;;;;;111.87;30.33;;;;;;;;;;5028163;28;20260;-92
2024/01/14 03:13:34;;;;;;;103.00;28.60;;;;;;;;;;5029258;28;20487;-94
2024/01/14 03:15:59;;;;;;;106.07;29.90;;;;;;;;;;5016614;28;20024;-93
2024/01/14 03:18:25;;;;;;;99.97;28.33;;;;;;;;;;5009810;28;20080;-93
2024/01/14 03:20:50;;;;;;;109.28;29.23;;;;;;;;;;5022698;28;20021;-93
2024/01/14 03:23:16;;;;;;;102.00;27.93;;;;;;;;;;5028108;28;20022;-93
2024/01/14 03:25:41;;;;;;;87.47;26.87;;;;;;;;;;5029111;28;20021;-92
2024/01/14 03:28:06;;;;;;;95.50;28.43;;;;;;;;;;5030519;28;20029;-93
2024/01/14 03:30:31;;;;;;;95.07;26.43;;;;;;;;;;5030080;28;20036;-93
2024/01/14 03:32:56;;;;;;;95.27;27.30;;;;;;;;;;5018811;28;20032;-92
2024/01/14 03:35:22;;;;;;;106.80;30.37;;;;;;;;;;5031067;28;20068;-93
2024/01/14 03:37:48;;;;;;;103.60;28.33;;;;;;;;;;5018896;28;20030;-92
2024/01/14 03:40:13;;;;;;;96.93;27.17;;;;;;;;;;5022979;28;20029;-92
2024/01/14 03:42:38;;;;;;;104.33;27.43;;;;;;;;;;5030915;28;20033;-93
2024/01/14 03:45:04;;;;;;;103.53;28.10;;;;;;;;;;5033361;28;20026;-91
2024/01/14 03:47:29;;;;;;;98.40;28.95;;;;;;;;;;5033394;28;20029;-91
2024/01/14 03:49:54;;;;;;;96.03;27.40;;;;;;;;;;5030242;28;20029;-92
2024/01/14 03:52:20;;;;;;;93.07;26.03;;;;;;;;;;5033582;28;20064;-92
2024/01/14 03:54:45;;;;;;;92.87;26.37;;;;;;;;;;5033911;28;20024;-93
2024/01/14 03:57:10;;;;;;;95.40;27.47;;;;;;;;;;5033534;28;20048;-93
2024/01/14 03:59:35;;;;;;;90.97;25.90;;;;;;;;;;5028749;28;20085;-94
2024/01/14 04:02:00;;;;;;;93.93;28.07;;;;;;;;;;5025823;28;20037;-94
2024/01/14 04:04:26;;;;;;;93.57;26.03;;;;;;;;;;5034541;28;20048;-94
2024/01/14 04:06:51;;;;;;;91.63;24.90;;;;;;;;;;5054572;28;20369;-88
2024/01/14 04:09:16;;;;;;;90.70;26.13;;;;;;;;;;5031455;28;20056;-89
2024/01/14 04:11:42;;;;;;;87.60;26.00;;;;;;;;;;5030121;28;20519;-88
2024/01/14 04:14:07;;;;;;;101.75;28.50;;;;;;;;;;5021358;28;20038;-87
2024/01/14 04:16:39;;;;;;;99.53;27.97;;;;;;;;;;5012685;28;20044;-88
2024/01/14 04:19:05;;;;;;;97.70;27.92;;;;;;;;;;5017267;28;20503;-87
2024/01/14 04:21:30;;;;;;;90.47;25.73;;;;;;;;;;5024665;28;20026;-87
2024/01/14 04:23:55;;;;;;;90.67;26.07;;;;;;;;;;5026427;28;20029;-89
2024/01/14 04:26:21;;;;;;;87.93;25.57;;;;;;;;;;5029381;28;20037;-89
2024/01/14 04:28:47;;;;;;;90.05;27.75;;;;;;;;;;5026955;28;20037;-87
2024/01/14 04:31:12;;;;;;;92.87;25.47;;;;;;;;;;5030017;28;20021;-88
2024/01/14 04:33:37;;;;;;;91.60;27.07;;;;;;;;;;5027816;28;20026;-88
2024/01/14 04:36:03;;;;;;;83.87;24.60;;;;;;;;;;5031653;28;20470;-88
2024/01/14 04:38:28;;;;;;;87.90;26.30;;;;;;;;;;5031460;28;20033;-88
2024/01/14 04:40:53;;;;;;;89.97;24.53;;;;;;;;;;5031150;28;20026;-88
2024/01/14 04:43:18;;;;;;;98.30;27.70;;;;;;;;;;5031035;28;20044;-87
2024/01/14 04:45:43;;;;;;;82.57;23.70;;;;;;;;;;5027060;28;20013;-88
2024/01/14 04:48:09;;;;;;;83.03;24.37;;;;;;;;;;5029163;28;20036;-89
2024/01/14 04:50:35;;;;;;;82.67;24.03;;;;;;;;;;5030926;28;20033;-88
2024/01/14 04:53:01;;;;;;;78.80;23.48;;;;;;;;;;5030229;28;20032;-87
2024/01/14 04:55:26;;;;;;;86.70;24.63;;;;;;;;;;5029148;28;20026;-88
2024/01/14 04:57:51;;;;;;;79.53;24.87;;;;;;;;;;5019236;28;20104;-88
2024/01/14 05:00:16;;;;;;;75.10;23.10;;;;;;;;;;5028542;28;20109;-88
2024/01/14 05:02:43;;;;;;;73.83;23.23;;;;;;;;;;5017384;28;20097;-87
2024/01/14 05:05:08;;;;;;;71.78;22.77;;;;;;;;;;5020950;28;20388;-87
2024/01/14 05:07:33;;;;;;;79.27;24.63;;;;;;;;;;5026770;28;20033;-88
2024/01/14 05:09:59;;;;;;;71.00;21.57;;;;;;;;;;5019489;28;20079;-88
2024/01/14 05:12:24;;;;;;;85.47;24.97;;;;;;;;;;5026450;28;20063;-87
2024/01/14 05:14:49;;;;;;;62.77;19.50;;;;;;;;;;5025616;28;20090;-87
2024/01/14 05:17:14;;;;;;;73.23;22.03;;;;;;;;;;5027631;28;20469;-87
2024/01/14 05:19:40;;;;;;;70.57;20.25;;;;;;;;;;5028157;28;20049;-87
2024/01/14 05:22:05;;;;;;;65.83;20.67;;;;;;;;;;5025662;28;20499;-87
2024/01/14 05:24:30;;;;;;;60.90;20.00;;;;;;;;;;5030090;28;20029;-87
2024/01/14 05:26:56;;;;;;;71.03;20.73;;;;;;;;;;5030293;28;20116;-87
2024/01/14 05:29:21;;;;;;;66.23;19.40;;;;;;;;;;5028708;28;20083;-87
2024/01/14 05:31:46;;;;;;;60.00;20.33;;;;;;;;;;5029229;28;20018;-88
2024/01/14 05:34:11;;;;;;;69.47;19.73;;;;;;;;;;5027097;28;20535;-89
2024/01/14 05:36:36;;;;;;;67.17;19.77;;;;;;;;;;5031120;28;20029;-89
2024/01/14 05:39:03;;;;;;;72.20;23.20;;;;;;;;;;5025281;28;20105;-88
2024/01/14 05:41:28;;;;;;;65.22;19.20;;;;;;;;;;5029400;28;20483;-87
2024/01/14 05:43:53;;;;;;;70.63;20.23;;;;;;;;;;5026898;28;20021;-87
2024/01/14 05:46:18;;;;;;;69.97;20.00;;;;;;;;;;5026793;28;20407;-89
2024/01/14 05:48:43;;;;;;;71.33;20.67;;;;;;;;;;5030245;28;20072;-88
2024/01/14 05:51:09;;;;;;;70.03;21.40;;;;;;;;;;5013078;28;20021;-88
2024/01/14 05:53:34;;;;;;;76.28;21.95;;;;;;;;;;5019130;28;20369;-88
2024/01/14 05:56:00;;;;;;;73.23;20.67;;;;;;;;;;5030177;28;20030;-88
2024/01/14 05:58:25;;;;;;;70.60;22.33;;;;;;;;;;5029327;28;20018;-89
2024/01/14 06:00:50;;;;;;;75.60;22.67;;;;;;;;;;5028471;28;20021;-88
2024/01/14 06:03:15;;;;;;;72.03;21.07;;;;;;;;;;5035070;28;20018;-88
2024/01/14 06:05:40;;;;;;;78.77;21.67;;;;;;;;;;5033464;28;20025;-87
2024/01/14 06:08:06;;;;;;;73.40;22.40;;;;;;;;;;5029922;28;20029;-88
2024/01/14 06:10:31;;;;;;;81.03;24.30;;;;;;;;;;5027366;28;20025;-89
2024/01/14 06:12:56;;;;;;;81.07;24.17;;;;;;;;;;5018167;28;20021;-89
2024/01/14 06:15:21;;;;;;;68.77;22.47;;;;;;;;;;5029869;28;20523;-88
2024/01/14 06:17:46;;;;;;;81.00;23.63;;;;;;;;;;5017936;28;20022;-89
2024/01/14 06:20:11;;;;;;;70.13;20.77;;;;;;;;;;5022626;28;20357;-89
2024/01/14 06:22:37;;;;;;;72.80;21.10;;;;;;;;;;5029746;28;20036;-88
2024/01/14 06:25:02;;;;;;;74.43;21.00;;;;;;;;;;5029412;28;20013;-86
2024/01/14 06:27:28;;;;;;;73.85;21.50;;;;;;;;;;5029537;28;20477;-88
2024/01/14 06:29:53;;;;;;;65.17;20.80;;;;;;;;;;5025038;28;20116;-88
2024/01/14 06:32:18;;;;;;;72.27;21.57;;;;;;;;;;5028590;28;20048;-89
2024/01/14 06:34:43;;;;;;;94.00;28.77;;;;;;;;;;5023066;28;20416;-89
2024/01/14 06:37:08;;;;;;;65.93;20.67;;;;;;;;;;5010673;28;20033;-88
2024/01/14 06:39:34;;;;;;;84.37;23.90;;;;;;;;;;5028506;28;20045;-89
2024/01/14 06:41:59;;;;;;;80.47;22.40;;;;;;;;;;5027815;28;20103;-89
2024/01/14 06:44:25;;;;;;;74.83;20.80;;;;;;;;;;5026360;28;20287;-89
2024/01/14 06:46:51;;;;;;;65.30;19.50;;;;;;;;;;5026234;28;20985;-89
2024/01/14 06:49:17;;;;;;;71.57;20.92;;;;;;;;;;5028896;28;20076;-89
2024/01/14 06:51:43;;;;;;;78.97;21.53;;;;;;;;;;5028993;28;20473;-88
2024/01/14 06:54:08;;;;;;;68.30;20.02;;;;;;;;;;5029427;28;20151;-89
2024/01/14 06:56:33;;;;;;;66.20;21.03;;;;;;;;;;5028754;28;20533;-89
2024/01/14 06:58:58;;;;;;;67.60;19.67;;;;;;;;;;5022410;28;20037;-89
2024/01/14 07:01:24;;;;;;;66.43;19.07;;;;;;;;;;5027172;28;20519;-88
2024/01/14 07:03:49;;;;;;;68.03;21.07;;;;;;;;;;5029649;28;20028;-89
2024/01/14 07:06:14;;;;;;;57.53;17.88;;;;;;;;;;5027541;28;20033;-88
2024/01/14 07:08:40;;;;;;;68.77;19.77;;;;;;;;;;5020398;28;20040;-89
2024/01/14 07:11:05;;;;;;;60.93;19.00;;;;;;;;;;5008491;28;20072;-89
2024/01/14 07:13:31;;;;;;;61.90;18.43;;;;;;;;;;5011464;28;20014;-89
2024/01/14 07:15:56;;;;;;;63.67;20.17;;;;;;;;;;5013704;28;20037;-89
2024/01/14 07:18:21;;;;;;;65.87;18.90;;;;;;;;;;5013594;28;20465;-89
2024/01/14 07:20:46;;;;;;;75.53;22.20;;;;;;;;;;5012554;28;20018;-89
2024/01/14 07:23:12;;;;;;;71.63;21.03;;;;;;;;;;5019002;28;20053;-89
2024/01/14 07:25:37;;;;;;;73.47;20.67;;;;;;;;;;5023616;28;20018;-89
2024/01/14 07:28:02;;;;;;;77.83;22.53;;;;;;;;;;5027991;28;20029;-89
2024/01/14 07:30:28;;;;;;;74.00;23.13;;;;;;;;;;5027706;28;20481;-89
2024/01/14 07:32:53;;;;;;;78.50;22.50;;;;;;;;;;5031314;28;20024;-88
2024/01/14 07:35:18;;;;;;;70.80;21.77;;;;;;;;;;5030864;28;20025;-88
2024/01/14 07:37:43;;;;;;;73.07;20.93;;;;;;;;;;5032734;28;20037;-89
2024/01/14 07:40:08;;;;;;;68.70;19.47;;;;;;;;;;5031364;28;20111;-90
2024/01/14 07:42:34;;;;;;;74.93;20.80;;;;;;;;;;5032663;28;20029;-89
2024/01/14 07:44:59;;;;;;;75.87;22.23;;;;;;;;;;5030015;28;20076;-89
2024/01/14 07:47:24;;;;;;;69.63;20.63;;;;;;;;;;5030869;28;20119;-89
2024/01/14 07:49:49;;;;;;;71.10;19.57;;;;;;;;;;5029829;28;20292;-89
2024/01/14 07:52:16;;;;;;;77.00;20.30;;;;;;;;;;5030147;28;20029;-89
2024/01/14 07:54:41;;;;;;;78.73;21.20;;;;;;;;;;5027687;28;20022;-91
2024/01/14 07:57:06;;;;;;;69.33;20.07;;;;;;;;;;5014368;28;20335;-88
2024/01/14 07:59:31;;;;;;;70.43;21.37;;;;;;;;;;5024284;28;20074;-88
2024/01/14 08:01:57;;;;;;;72.73;20.43;;;;;;;;;;5023841;28;20465;-87
2024/01/14 08:04:22;;;;;;;67.10;18.87;;;;;;;;;;5029846;28;20026;-87
2024/01/14 08:06:47;;;;;;;82.63;22.10;;;;;;;;;;5031211;28;20064;-88
2024/01/14 08:09:12;;;;;;;62.00;18.57;;;;;;;;;;5030246;28;20029;-89
2024/01/14 08:11:38;;;;;;;65.93;20.07;;;;;;;;;;5028053;28;20021;-88
2024/01/14 08:14:03;;;;;;;67.03;19.43;;;;;;;;;;5030811;28;20435;-88
2024/01/14 08:16:28;;;;;;;67.37;20.60;;;;;;;;;;5030513;28;20022;-88
2024/01/14 08:18:53;;;;;;;62.03;18.90;;;;;;;;;;5031430;28;20115;-87
2024/01/14 08:21:18;;;;;;;60.77;19.00;;;;;;;;;;5025372;28;20021;-87
2024/01/14 08:23:44;;;;;;;59.77;18.20;;;;;;;;;;5029496;28;20022;-88
2024/01/14 08:26:09;;;;;;;65.00;19.80;;;;;;;;;;5015607;28;20018;-89
2024/01/14 08:28:35;;;;;;;57.90;18.87;;;;;;;;;;5025536;28;20053;-92
2024/01/14 08:31:00;;;;;;;61.72;18.58;;;;;;;;;;5021063;28;20418;-91
2024/01/14 08:33:26;;;;;;;63.77;19.20;;;;;;;;;;5030838;28;20022;-89
2024/01/14 08:35:53;;;;;;;61.05;18.42;;;;;;;;;;5030795;28;20029;-88
2024/01/14 08:38:20;;;;;;;52.95;17.27;;;;;;;;;;5022635;28;20029;-88
2024/01/14 08:40:45;;;;;;;56.95;17.63;;;;;;;;;;5013500;28;20034;-90
2024/01/14 08:43:10;;;;;;;63.30;19.10;;;;;;;;;;5026740;28;20033;-89
2024/01/14 08:45:36;;;;;;;59.90;19.13;;;;;;;;;;5014494;28;20025;-88
2024/01/14 08:48:01;;;;;;;65.73;18.70;;;;;;;;;;5029526;28;20025;-90
2024/01/14 08:50:27;;;;;;;60.93;19.23;;;;;;;;;;5029772;28;20053;-90
2024/01/14 08:52:52;;;;;;;63.33;19.13;;;;;;;;;;5030840;28;20025;-90
2024/01/14 08:55:17;;;;;;;58.37;18.90;;;;;;;;;;5023980;28;20010;-89
2024/01/14 08:57:43;;;;;;;66.73;19.10;;;;;;;;;;5030377;28;20032;-88
2024/01/14 09:00:08;;;;;;;60.03;18.60;;;;;;;;;;5025039;28;20037;-88
2024/01/14 09:02:34;;;;;;;58.78;19.40;;;;;;;;;;5028759;28;20045;-89
2024/01/14 09:04:59;;;;;;;66.77;18.93;;;;;;;;;;5031303;28;20495;-88
2024/01/14 09:07:25;;;;;;;64.30;19.77;;;;;;;;;;5029312;28;20025;-88
2024/01/14 09:09:50;;;;;;;59.70;19.40;;;;;;;;;;5023002;28;20053;-88
2024/01/14 09:12:15;;;;;;;61.90;19.87;;;;;;;;;;5010454;28;20072;-89
2024/01/14 09:14:40;;;;;;;67.03;21.77;;;;;;;;;;5011323;28;20423;-88
2024/01/14 09:17:05;;;;;;;57.73;18.07;;;;;;;;;;5010835;28;20034;-88
2024/01/14 09:19:31;;;;;;;56.03;17.40;;;;;;;;;;5010974;28;20076;-88
2024/01/14 09:21:56;;;;;;;64.50;19.33;;;;;;;;;;5010469;28;20014;-88
2024/01/14 09:24:22;;;;;;;54.73;17.73;;;;;;;;;;5020186;28;20107;-88
2024/01/14 09:26:47;;;;;;;58.63;18.58;;;;;;;;;;5028307;28;20028;-88
2024/01/14 09:29:12;;;;;;;56.73;17.23;;;;;;;;;;5030653;28;20021;-88
2024/01/14 09:31:37;;;;;;;57.90;18.20;;;;;;;;;;5029936;28;20517;-87
2024/01/14 09:34:04;;;;;;;60.22;19.55;;;;;;;;;;5030178;28;20073;-88
2024/01/14 09:36:31;;;;;;;54.10;17.30;;;;;;;;;;5030305;28;20017;-88
2024/01/14 09:38:56;;;;;;;55.95;18.67;;;;;;;;;;5029397;28;20483;-88
2024/01/14 09:41:24;;;;;;;62.70;19.50;;;;;;;;;;5028607;28;20100;-88
2024/01/14 09:43:50;;;;;;;55.80;18.63;;;;;;;;;;5030407;28;20022;-88
2024/01/14 09:46:16;;;;;;;56.17;18.63;;;;;;;;;;5030205;28;20071;-88
2024/01/14 09:48:42;;;;;;;61.50;19.90;;;;;;;;;;5030945;28;20388;-87
2024/01/14 09:51:08;;;;;;;60.03;20.02;;;;;;;;;;5029482;28;20057;-88
2024/01/14 09:53:34;;;;;;;57.45;19.45;;;;;;;;;;5034002;28;20080;-88
2024/01/14 09:56:00;;;;;;;56.43;18.50;;;;;;;;;;5033432;28;20056;-89
2024/01/14 09:58:26;;;;;;;60.67;19.70;;;;;;;;;;5028546;28;20102;-87
2024/01/14 10:00:54;;;;;;;58.03;18.53;;;;;;;;;;5028226;28;20460;-89
2024/01/14 10:03:19;;;;;;;58.88;19.77;;;;;;;;;;5030024;28;20572;-88
2024/01/14 10:05:45;;;;;;;55.70;18.27;;;;;;;;;;5027735;28;20029;-88
2024/01/14 10:08:10;;;;;;;59.03;20.60;;;;;;;;;;5029692;28;20043;-88
2024/01/14 10:10:36;;;;;;;49.87;18.50;;;;;;;;;;5029074;28;20024;-88
2024/01/14 10:13:02;;;;;;;48.17;17.35;;;;;;;;;;5029897;28;20026;-87
2024/01/14 10:15:27;;;;;;;56.78;19.65;;;;;;;;;;5028608;28;20014;-89
2024/01/14 10:17:52;;;;;;;55.10;19.90;;;;;;;;;;5030370;28;20556;-86
2024/01/14 10:20:21;;;;;;;56.10;18.77;;;;;;;;;;5028434;28;20028;-85
2024/01/14 10:22:46;;;;;;;56.22;19.48;;;;;;;;;;5027291;28;20116;-84
2024/01/14 10:25:11;;;;;;;55.70;18.67;;;;;;;;;;5029476;28;20100;-84
2024/01/14 10:27:37;;;;;;;55.13;20.97;;;;;;;;;;5028805;28;20472;-84
2024/01/14 10:30:02;;;;;;;49.17;17.40;;;;;;;;;;5026605;28;20018;-85
2024/01/14 10:32:31;;;;;;;51.80;18.87;;;;;;;;;;5025899;28;20029;-84
2024/01/14 10:34:56;;;;;;;55.78;19.95;;;;;;;;;;5021351;28;20025;-85
2024/01/14 10:37:26;;;;;;;54.30;18.87;;;;;;;;;;5027291;28;20180;-85
2024/01/14 10:39:53;;;;;;;48.25;18.42;;;;;;;;;;5025372;28;20138;-84
2024/01/14 10:42:18;;;;;;;51.28;18.17;;;;;;;;;;5022472;28;20035;-84
2024/01/14 10:44:43;;;;;;;48.67;17.47;;;;;;;;;;5027417;28;20451;-84
2024/01/14 10:47:10;;;;;;;41.63;15.53;;;;;;;;;;5031443;28;20029;-85
2024/01/14 10:49:39;;;;;;;38.50;15.55;;;;;;;;;;5032653;28;20441;-85
2024/01/14 10:52:08;;;;;;;47.40;18.73;;;;;;;;;;5032748;28;20492;-84
2024/01/14 10:54:33;;;;;;;39.20;15.50;;;;;;;;;;5023949;28;20032;-85
2024/01/14 10:57:37;;;;;;;44.07;16.10;;;;;;;;;;5031695;28;20473;-86
2024/01/14 11:00:05;;;;;;;44.53;16.70;;;;;;;;;;4970132;28;20034;-86
2024/01/14 11:02:32;;;;;;;40.90;16.50;;;;;;;;;;5013730;28;20025;-85
2024/01/14 11:04:58;;;;;;;46.85;17.77;;;;;;;;;;5032557;28;20060;-86
2024/01/14 11:07:23;;;;;;;49.23;18.47;;;;;;;;;;5032180;28;20057;-85
2024/01/14 11:09:50;;;;;;;44.43;16.93;;;;;;;;;;5030181;28;20040;-85
2024/01/14 11:12:35;;;;;;;46.00;17.73;;;;;;;;;;5030931;28;20053;-85
2024/01/14 11:15:04;;;;;;;46.75;18.00;;;;;;;;;;5032329;28;20767;-85
2024/01/14 11:17:52;;;;;;;48.42;17.40;;;;;;;;;;5033120;28;20028;-83
2024/01/14 11:20:19;;;;;;;48.08;16.92;;;;;;;;;;5012331;28;20018;-82
2024/01/14 11:22:45;;;;;;;44.72;16.90;;;;;;;;;;5026526;28;20049;-82
2024/01/14 11:25:13;;;;;;;48.93;18.03;;;;;;;;;;5032708;28;20045;-83
2024/01/14 11:27:38;;;;;;;50.90;17.48;;;;;;;;;;5032742;28;20424;-84
2024/01/14 11:30:04;;;;;;;44.13;16.87;;;;;;;;;;5032107;28;20022;-83
2024/01/14 11:32:29;;;;;;;48.13;18.43;;;;;;;;;;5026242;28;20033;-85
2024/01/14 11:34:57;;;;;;;45.42;16.40;;;;;;;;;;5026483;28;20030;-85
2024/01/14 11:37:29;;;;;;;48.50;17.95;;;;;;;;;;5027491;28;20019;-85
2024/01/14 11:40:05;;;;;;;51.97;17.70;;;;;;;;;;5030769;28;20029;-85
2024/01/14 11:42:31;;;;;;;50.63;18.20;;;;;;;;;;5027781;28;20477;-85
2024/01/14 11:44:56;;;;;;;49.25;17.85;;;;;;;;;;5030923;28;20017;-84
2024/01/14 11:47:34;;;;;;;56.73;18.90;;;;;;;;;;5032409;28;20033;-85
2024/01/14 11:50:00;;;;;;;47.88;18.27;;;;;;;;;;5032306;28;20116;-85
2024/01/14 11:52:26;;;;;;;55.70;19.73;;;;;;;;;;5031779;28;20125;-84
2024/01/14 11:54:52;;;;;;;55.97;18.67;;;;;;;;;;5032662;28;20347;-85
2024/01/14 11:57:20;;;;;;;52.67;19.63;;;;;;;;;;5029663;28;20020;-85
2024/01/14 11:59:46;;;;;;;64.82;19.48;;;;;;;;;;5031497;28;20025;-85
2024/01/14 12:02:17;;;;;;;50.60;18.53;;;;;;;;;;5031274;28;20477;-85
2024/01/14 12:04:43;;;;;;;56.10;19.00;;;;;;;;;;5030262;28;20100;-85
2024/01/14 12:07:08;;;;;;;60.17;20.93;;;;;;;;;;5011617;28;20113;-84
2024/01/14 12:09:33;;;;;;;56.87;18.63;;;;;;;;;;5012373;28;20057;-85
2024/01/14 12:12:03;;;;;;;50.90;18.47;;;;;;;;;;5011667;28;20029;-85
2024/01/14 12:14:29;;;;;;;56.72;18.67;;;;;;;;;;5012426;28;20384;-85
2024/01/14 12:16:54;;;;;;;59.90;19.70;;;;;;;;;;5028665;28;20083;-85
2024/01/14 12:19:19;;;;;;;59.27;19.97;;;;;;;;;;5031834;28;20549;-85
2024/01/14 12:21:45;;;;;;;64.90;21.07;;;;;;;;;;5031005;28;20268;-85
2024/01/14 12:24:10;;;;;;;53.97;18.77;;;;;;;;;;5031887;28;20022;-85
2024/01/14 12:26:36;;;;;;;55.73;19.70;;;;;;;;;;5031529;28;20416;-85
2024/01/14 12:29:01;;;;;;;59.57;20.20;;;;;;;;;;5029813;28;20025;-85
2024/01/14 12:31:26;;;;;;;62.50;20.50;;;;;;;;;;5030122;28;20480;-86
2024/01/14 12:33:51;;;;;;;50.33;18.57;;;;;;;;;;5025786;28;20091;-85
2024/01/14 12:36:18;;;;;;;58.95;19.05;;;;;;;;;;5031651;28;20440;-84
2024/01/14 12:38:43;;;;;;;60.20;20.77;;;;;;;;;;5031491;28;20017;-85
2024/01/14 12:41:08;;;;;;;50.17;17.88;;;;;;;;;;5029661;28;20048;-85
2024/01/14 12:43:34;;;;;;;53.33;18.20;;;;;;;;;;5031613;28;20032;-85
2024/01/14 12:46:01;;;;;;;58.27;18.70;;;;;;;;;;5031228;28;20777;-85
2024/01/14 12:48:26;;;;;;;55.22;18.48;;;;;;;;;;5029582;28;20022;-85
2024/01/14 12:50:58;;;;;;;59.40;19.37;;;;;;;;;;5030501;28;20018;-85
2024/01/14 12:53:27;;;;;;;54.55;19.48;;;;;;;;;;5030904;28;20033;-87
2024/01/14 12:56:13;;;;;;;51.00;17.63;;;;;;;;;;5031262;28;20021;-85
2024/01/14 12:58:39;;;;;;;57.37;20.40;;;;;;;;;;5030428;28;20529;-85
2024/01/14 13:01:05;;;;;;;45.00;16.35;;;;;;;;;;5030072;28;20049;-85
2024/01/14 13:03:30;;;;;;;60.72;18.27;;;;;;;;;;5029675;28;20029;-85
2024/01/14 13:05:56;;;;;;;56.83;18.13;;;;;;;;;;5028939;28;20027;-84
2024/01/14 13:08:21;;;;;;;51.33;18.63;;;;;;;;;;5030407;28;20033;-85
2024/01/14 13:10:46;;;;;;;52.40;18.90;;;;;;;;;;5049395;28;20013;-85
2024/01/14 13:13:11;;;;;;;50.93;16.83;;;;;;;;;;5040726;28;20025;-86
2024/01/14 13:15:36;;;;;;;49.10;16.27;;;;;;;;;;5026472;28;20838;-85
2024/01/14 13:18:02;;;;;;;51.67;17.30;;;;;;;;;;5030637;28;20014;-84
2024/01/14 13:20:28;;;;;;;51.10;16.47;;;;;;;;;;5030012;28;20523;-84
2024/01/14 13:22:53;;;;;;;52.25;17.33;;;;;;;;;;5029493;28;20021;-83
2024/01/14 13:25:18;;;;;;;58.50;19.07;;;;;;;;;;5030086;28;20033;-84
2024/01/14 13:27:44;;;;;;;48.17;16.53;;;;;;;;;;5046292;28;20482;-84
2024/01/14 13:30:10;;;;;;;44.50;16.13;;;;;;;;;;5029046;28;20032;-83
2024/01/14 13:32:36;;;;;;;51.77;18.33;;;;;;;;;;5024893;28;20292;-83
2024/01/14 13:35:02;;;;;;;45.42;16.10;;;;;;;;;;5024509;28;20085;-82
2024/01/14 13:37:28;;;;;;;49.07;17.33;;;;;;;;;;5029912;28;20362;-83
2024/01/14 13:39:53;;;;;;;48.70;17.30;;;;;;;;;;5028894;28;20276;-83
2024/01/14 13:42:18;;;;;;;55.07;19.10;;;;;;;;;;5030392;28;20079;-83
2024/01/14 13:44:43;;;;;;;43.90;16.10;;;;;;;;;;5036736;28;20029;-83
2024/01/14 13:47:09;;;;;;;41.00;15.60;;;;;;;;;;5029593;28;20041;-82
2024/01/14 13:49:34;;;;;;;42.47;16.43;;;;;;;;;;5029372;28;20029;-82
2024/01/14 13:52:00;;;;;;;47.37;16.07;;;;;;;;;;5028670;28;20021;-83
2024/01/14 13:54:25;;;;;;;46.27;17.40;;;;;;;;;;5029101;28;20674;-83
2024/01/14 13:56:54;;;;;;;45.97;16.63;;;;;;;;;;5029697;28;20095;-83
2024/01/14 13:59:20;;;;;;;50.07;16.67;;;;;;;;;;5028451;28;20668;-83
2024/01/14 14:01:45;;;;;;;50.23;17.23;;;;;;;;;;5032478;28;20322;-83
2024/01/14 14:04:10;;;;;;;46.47;17.80;;;;;;;;;;5028269;28;20038;-83
2024/01/14 14:06:36;;;;;;;50.70;20.23;;;;;;;;;;5027163;28;20033;-82
2024/01/14 14:09:01;;;;;;;46.83;16.53;;;;;;;;;;5016724;28;20060;-83